Time;durP1;ratioP1;P1;durP2;ratioP2;P2;SDS_P1;SDS_P2;PMS_P1;PMS_P2;Temp;Humidity;BMP_temperature;BMP_pressure;BME280_temperature;BME280_humidity;BME280_pressure;Samples;Min_cycle;Max_cycle;Signal;HPM_P1;HPM_P2
2023/01/06 00:01:25;;;;;;;8.20;2.40;;;;;;;-0.54;100.00;100283.02;102401;1299;68832;-63
2023/01/06 00:04:13;;;;;;;8.80;2.90;;;;;;;-0.55;100.00;100285.30;102411;1291;72660;-63
2023/01/06 00:07:01;;;;;;;12.60;3.20;;;;;;;-0.54;100.00;100293.65;102357;1295;59792;-64
2023/01/06 00:09:50;;;;;;;10.10;2.80;;;;;;;-0.54;100.00;100291.74;102389;1294;60141;-65
2023/01/06 00:12:39;;;;;;;9.50;2.90;;;;;;;-0.55;100.00;100295.45;102400;1282;74057;-63
2023/01/06 00:15:29;;;;;;;11.30;3.60;;;;;;;-0.55;100.00;100297.70;102463;1302;66866;-63
2023/01/06 00:18:17;;;;;;;11.90;2.70;;;;;;;-0.54;100.00;100300.63;102368;1296;73633;-64
2023/01/06 00:21:08;;;;;;;10.90;2.80;;;;;;;-0.54;100.00;100301.14;102457;1292;59763;-64
2023/01/06 00:23:56;;;;;;;8.70;2.70;;;;;;;-0.56;100.00;100301.71;102430;1298;59702;-66
2023/01/06 00:26:45;;;;;;;8.80;2.70;;;;;;;-0.57;100.00;100309.62;101684;1298;1003740;-66
2023/01/06 00:29:33;;;;;;;12.50;3.40;;;;;;;-0.62;99.94;100304.34;102349;1292;68663;-65
2023/01/06 00:32:22;;;;;;;8.90;2.50;;;;;;;-0.64;99.75;100314.86;102376;1298;72605;-64
2023/01/06 00:35:10;;;;;;;11.20;2.60;;;;;;;-0.66;98.95;100324.52;102333;1297;59639;-64
2023/01/06 00:37:59;;;;;;;9.70;2.90;;;;;;;-0.65;99.53;100330.58;102265;1299;61363;-65
2023/01/06 00:40:47;;;;;;;16.50;3.60;;;;;;;-0.60;100.00;100333.92;102381;1297;74051;-65
2023/01/06 00:43:36;;;;;;;13.60;3.10;;;;;;;-0.57;99.58;100340.64;102199;1298;68645;-63
2023/01/06 00:46:27;;;;;;;16.50;3.80;;;;;;;-0.56;99.62;100354.88;102411;1298;73034;-63
2023/01/06 00:49:16;;;;;;;11.50;3.10;;;;;;;-0.56;99.19;100354.71;102188;1297;59773;-65
2023/01/06 00:52:05;;;;;;;8.90;2.60;;;;;;;-0.59;98.32;100360.38;102231;1298;60077;-63
2023/01/06 00:54:53;;;;;;;13.50;3.00;;;;;;;-0.65;97.28;100359.66;102343;1297;73956;-65
2023/01/06 00:57:42;;;;;;;11.60;3.10;;;;;;;-0.70;97.08;100364.52;102382;1290;68618;-65
2023/01/06 01:00:32;;;;;;;10.10;3.00;;;;;;;-0.72;96.95;100377.27;102470;1298;74196;-66
2023/01/06 01:03:21;;;;;;;12.90;2.80;;;;;;;-0.74;96.61;100375.95;102368;1297;59761;-65
2023/01/06 01:06:13;;;;;;;10.90;2.60;;;;;;;-0.75;96.08;100382.95;102357;1298;60807;-64
2023/01/06 01:09:03;;;;;;;9.60;2.20;;;;;;;-0.80;95.28;100389.15;102265;1299;74006;-66
2023/01/06 01:12:11;;;;;;;9.60;3.00;;;;;;;-0.83;94.85;100386.97;102172;1299;69252;-64
2023/01/06 01:15:00;;;;;;;8.20;2.50;;;;;;;-0.86;95.03;100397.33;102328;1299;73240;-63
2023/01/06 01:17:48;;;;;;;9.10;2.70;;;;;;;-0.90;94.85;100402.64;102302;1297;60215;-63
2023/01/06 01:20:37;;;;;;;10.10;3.00;;;;;;;-0.93;94.81;100407.77;102567;1297;61128;-63
2023/01/06 01:23:26;;;;;;;10.30;2.80;;;;;;;-0.93;94.73;100414.57;102431;1299;74118;-64
2023/01/06 01:26:15;;;;;;;11.30;2.40;;;;;;;-0.94;94.04;100417.73;102230;1294;67793;-64
2023/01/06 01:29:04;;;;;;;13.00;3.30;;;;;;;-0.94;94.16;100427.31;102460;1294;73372;-66
2023/01/06 01:31:54;;;;;;;10.70;2.10;;;;;;;-0.93;94.44;100434.27;102540;1292;59685;-65
2023/01/06 01:34:43;;;;;;;7.90;2.20;;;;;;;-0.92;94.76;100436.67;102497;1294;61394;-65
2023/01/06 01:37:32;;;;;;;7.60;2.20;;;;;;;-0.90;95.11;100434.19;101614;1299;1003039;-65
2023/01/06 01:40:20;;;;;;;9.30;2.30;;;;;;;-0.90;94.64;100439.59;102516;1294;67837;-65
2023/01/06 01:43:11;;;;;;;9.80;2.90;;;;;;;-0.92;94.35;100436.66;102346;1299;73390;-64
2023/01/06 01:46:00;;;;;;;10.30;2.40;;;;;;;-0.91;94.80;100433.88;102504;1298;59749;-64
2023/01/06 01:48:49;;;;;;;13.10;3.10;;;;;;;-0.92;94.94;100428.84;102172;1298;59710;-65
2023/01/06 01:51:51;;;;;;;11.60;2.80;;;;;;;-0.92;93.82;100430.08;102421;1294;74039;-64
2023/01/06 01:54:40;;;;;;;10.00;2.70;;;;;;;-0.96;92.53;100435.92;102464;1291;68642;-65
2023/01/06 01:57:41;;;;;;;8.50;2.50;;;;;;;-1.02;90.78;100439.19;102415;1292;72622;-64
2023/01/06 02:00:30;;;;;;;13.20;2.30;;;;;;;-1.07;90.65;100443.12;102604;1291;59782;-64
2023/01/06 02:03:21;;;;;;;9.60;2.30;;;;;;;-1.10;89.68;100456.61;102535;1299;60057;-65
2023/01/06 02:06:16;;;;;;;11.50;2.80;;;;;;;-1.14;90.11;100463.14;102223;1299;74011;-65
2023/01/06 02:09:11;;;;;;;10.70;2.80;;;;;;;-1.12;91.08;100462.92;102405;1297;67889;-65
2023/01/06 02:12:00;;;;;;;14.40;3.10;;;;;;;-1.10;91.42;100468.11;102423;1294;72698;-64
2023/01/06 02:14:49;;;;;;;7.40;2.20;;;;;;;-1.09;91.27;100472.63;102409;1299;59650;-65
2023/01/06 02:18:04;;;;;;;16.90;3.10;;;;;;;-1.12;90.45;100473.55;102515;1295;60801;-65
2023/01/06 02:21:10;;;;;;;7.20;2.30;;;;;;;-1.13;90.55;100475.15;102376;1290;71602;-65
2023/01/06 02:24:30;;;;;;;9.10;2.80;;;;;;;-1.15;90.28;100484.24;102452;1294;68839;-66
2023/01/06 02:27:55;;;;;;;10.90;2.90;;;;;;;-1.17;90.26;100484.64;102469;1295;74039;-63
2023/01/06 02:30:55;;;;;;;12.50;2.80;;;;;;;-1.18;90.88;100483.27;102477;1294;59998;-64
2023/01/06 02:33:50;;;;;;;10.20;2.60;;;;;;;-1.18;91.21;100479.95;102299;1297;59644;-64
2023/01/06 02:36:55;;;;;;;11.10;2.70;;;;;;;-1.18;90.18;100483.43;102362;1299;72988;-63
2023/01/06 02:40:04;;;;;;;9.10;2.80;;;;;;;-1.18;89.50;100483.44;102390;1288;67871;-64
2023/01/06 02:43:25;;;;;;;8.10;2.10;;;;;;;-1.17;89.74;100488.13;102426;1293;71821;-66
2023/01/06 02:46:42;;;;;;;8.50;2.50;;;;;;;-1.17;90.41;100484.47;102408;1298;59793;-64
2023/01/06 02:49:45;;;;;;;9.20;2.60;;;;;;;-1.17;90.18;100483.41;102510;1288;60267;-64
2023/01/06 02:52:48;;;;;;;8.70;2.40;;;;;;;-1.19;90.29;100480.85;102555;1295;74082;-64
2023/01/06 02:55:47;;;;;;;10.80;2.90;;;;;;;-1.17;91.09;100477.68;102498;1294;68856;-66
2023/01/06 02:58:57;;;;;;;13.60;3.40;;;;;;;-1.18;90.96;100468.98;102245;1299;72636;-63
2023/01/06 03:01:51;;;;;;;11.70;3.40;;;;;;;-1.20;90.19;100466.94;102534;1299;59702;-66
2023/01/06 03:04:45;;;;;;;9.00;2.60;;;;;;;-1.22;90.08;100464.02;102440;1299;61325;-66
2023/01/06 03:07:37;;;;;;;9.40;2.50;;;;;;;-1.23;89.88;100474.15;102372;1298;74113;-63
2023/01/06 03:10:27;;;;;;;9.00;2.60;;;;;;;-1.25;89.62;100466.54;102364;1289;67593;-65
2023/01/06 03:13:48;;;;;;;7.90;2.30;;;;;;;-1.26;89.86;100463.23;101634;1299;1003700;-64
2023/01/06 03:16:37;;;;;;;8.80;2.30;;;;;;;-1.28;88.78;100462.95;102403;1295;59773;-65
2023/01/06 03:19:26;;;;;;;11.10;2.50;;;;;;;-1.34;88.30;100455.92;102394;1299;60336;-63
2023/01/06 03:22:16;;;;;;;9.70;2.80;;;;;;;-1.33;87.89;100455.92;102364;1298;74104;-65
2023/01/06 03:25:08;;;;;;;8.30;2.30;;;;;;;-1.31;88.51;100458.13;102585;1295;68319;-64
2023/01/06 03:27:59;;;;;;;8.60;2.70;;;;;;;-1.27;89.33;100464.47;102221;1297;71883;-66
2023/01/06 03:31:15;;;;;;;8.50;2.60;;;;;;;-1.26;89.33;100466.89;102408;1299;60163;-66
2023/01/06 03:34:55;;;;;;;9.70;2.50;;;;;;;-1.24;89.52;100469.13;102461;1299;59610;-64
2023/01/06 03:38:40;;;;;;;11.40;3.00;;;;;;;-1.25;89.36;100468.27;102403;1295;72515;-63
2023/01/06 03:45:13;;;;;;;7.20;2.30;;;;;;;-1.30;89.12;100466.11;102403;1295;72945;-62
2023/01/06 03:48:31;;;;;;;11.20;2.70;;;;;;;-1.28;89.85;100469.90;102537;1299;59584;-64
2023/01/06 03:51:48;;;;;;;8.40;2.40;;;;;;;-1.25;89.57;100473.30;102358;1297;61093;-63
2023/01/06 03:54:44;;;;;;;6.50;2.20;;;;;;;-1.24;88.97;100478.87;102415;1299;72908;-64
2023/01/06 03:57:38;;;;;;;6.90;2.30;;;;;;;-1.24;87.85;100476.09;102400;1294;67579;-64
2023/01/06 04:00:35;;;;;;;6.60;2.50;;;;;;;-1.27;87.57;100465.17;102312;1301;74242;-63
2023/01/06 04:03:25;;;;;;;7.40;2.20;;;;;;;-1.26;87.65;100476.30;102288;1297;59767;-63
2023/01/06 04:06:13;;;;;;;7.10;2.00;;;;;;;-1.25;87.90;100480.46;101414;1299;1003006;-63
2023/01/06 04:09:02;;;;;;;5.90;2.10;;;;;;;-1.27;87.58;100483.30;102204;1301;74028;-63
2023/01/06 04:14:58;;;;;;;8.20;2.30;;;;;;;-1.34;87.24;100483.09;102359;1299;73682;-62
2023/01/06 04:17:48;;;;;;;10.00;2.60;;;;;;;-1.34;87.97;100478.92;102379;1291;59682;-63
2023/01/06 04:20:37;;;;;;;10.20;3.10;;;;;;;-1.31;88.45;100477.30;102173;1288;62095;-63
2023/01/06 04:23:32;;;;;;;10.50;3.00;;;;;;;-1.28;88.64;100467.46;102410;1298;73012;-64
2023/01/06 04:26:23;;;;;;;8.00;2.80;;;;;;;-1.23;89.23;100467.70;102317;1291;67645;-63
2023/01/06 04:29:12;;;;;;;9.20;3.20;;;;;;;-1.19;89.76;100470.58;102448;1299;74149;-64
2023/01/06 04:32:03;;;;;;;8.80;2.80;;;;;;;-1.17;89.50;100474.20;102486;1299;59747;-64
2023/01/06 04:34:52;;;;;;;6.50;1.80;;;;;;;-1.18;88.59;100479.44;102347;1299;60336;-65
2023/01/06 04:37:40;;;;;;;10.00;3.00;;;;;;;-1.23;87.37;100481.29;102300;1291;72998;-62
2023/01/06 04:40:29;;;;;;;6.90;2.30;;;;;;;-1.29;86.91;100487.52;102238;1292;67905;-62
2023/01/06 04:43:18;;;;;;;8.10;2.70;;;;;;;-1.31;87.10;100485.64;102438;1291;73048;-64
2023/01/06 04:46:07;;;;;;;6.30;2.00;;;;;;;-1.32;87.22;100484.80;102401;1299;59683;-64
2023/01/06 04:48:56;;;;;;;8.20;2.30;;;;;;;-1.31;87.68;100492.42;102393;1294;59644;-62
2023/01/06 04:51:44;;;;;;;7.40;2.30;;;;;;;-1.31;86.70;100499.74;102375;1297;73781;-62
2023/01/06 04:54:35;;;;;;;7.60;2.40;;;;;;;-1.29;87.76;100501.95;102458;1297;69282;-63
2023/01/06 04:57:24;;;;;;;8.30;2.40;;;;;;;-1.27;88.31;100501.75;102516;1294;72442;-64
2023/01/06 05:00:12;;;;;;;7.80;2.60;;;;;;;-1.26;88.35;100498.08;102699;1297;59706;-65
2023/01/06 05:03:00;;;;;;;6.70;2.40;;;;;;;-1.25;88.28;100497.15;102132;1294;60366;-64
2023/01/06 05:05:49;;;;;;;7.80;2.10;;;;;;;-1.24;88.41;100501.49;102408;1297;73802;-64
2023/01/06 05:08:40;;;;;;;8.60;2.50;;;;;;;-1.21;88.46;100501.27;102571;1290;67460;-66
2023/01/06 05:11:28;;;;;;;8.20;2.80;;;;;;;-1.19;88.70;100505.05;102323;1299;72426;-63
2023/01/06 05:14:17;;;;;;;6.30;2.10;;;;;;;-1.18;88.98;100512.69;102435;1299;59744;-65
2023/01/06 05:17:08;;;;;;;8.10;2.50;;;;;;;-1.19;87.88;100510.97;102482;1299;60358;-63
2023/01/06 05:19:57;;;;;;;8.30;2.80;;;;;;;-1.22;87.60;100507.55;102580;1291;73773;-66
2023/01/06 05:22:45;;;;;;;7.30;2.40;;;;;;;-1.23;87.40;100504.45;102480;1297;68730;-66
2023/01/06 05:25:33;;;;;;;8.50;2.70;;;;;;;-1.26;86.04;100498.76;102436;1295;73540;-65
2023/01/06 05:28:22;;;;;;;7.00;2.20;;;;;;;-1.29;85.62;100497.42;102133;1299;59686;-63
2023/01/06 05:31:12;;;;;;;7.00;2.10;;;;;;;-1.30;83.99;100495.70;102467;1299;61845;-66
2023/01/06 05:34:00;;;;;;;7.10;1.90;;;;;;;-1.33;84.77;100488.98;102577;1290;73037;-66
2023/01/06 05:36:48;;;;;;;8.80;2.40;;;;;;;-1.32;84.43;100485.14;102331;1291;67242;-64
2023/01/06 05:39:36;;;;;;;7.20;2.20;;;;;;;-1.34;84.71;100487.44;101385;1299;1003071;-64
2023/01/06 05:42:24;;;;;;;8.40;2.40;;;;;;;-1.36;84.35;100484.35;102395;1291;59645;-65
2023/01/06 05:45:12;;;;;;;6.90;2.20;;;;;;;-1.36;84.89;100489.75;101626;1291;1003736;-64
2023/01/06 05:48:01;;;;;;;10.20;2.70;;;;;;;-1.37;85.16;100495.52;102379;1294;73018;-64
2023/01/06 05:50:50;;;;;;;7.40;2.40;;;;;;;-1.33;85.79;100505.02;102117;1299;67799;-65
2023/01/06 05:53:42;;;;;;;8.50;2.30;;;;;;;-1.31;85.43;100506.02;102363;1297;73165;-64
2023/01/06 05:56:30;;;;;;;8.40;2.40;;;;;;;-1.29;85.42;100501.27;102284;1299;59782;-67
2023/01/06 05:59:19;;;;;;;8.60;2.60;;;;;;;-1.27;85.09;100504.70;102457;1299;60209;-65
2023/01/06 06:02:07;;;;;;;8.60;2.40;;;;;;;-1.25;85.14;100507.79;102530;1292;73956;-62
2023/01/06 06:04:56;;;;;;;7.50;2.20;;;;;;;-1.25;84.58;100507.61;102624;1295;69149;-65
2023/01/06 06:07:52;;;;;;;6.70;2.00;;;;;;;-1.26;84.88;100499.61;102460;1297;72217;-64
2023/01/06 06:10:40;;;;;;;8.50;2.60;;;;;;;-1.29;83.84;100490.83;102477;1299;60326;-64
2023/01/06 06:13:28;;;;;;;6.50;2.30;;;;;;;-1.32;83.63;100487.75;102427;1299;60403;-63
2023/01/06 06:16:20;;;;;;;6.90;2.60;;;;;;;-1.33;83.71;100489.16;101678;1299;1015287;-66
2023/01/06 06:19:11;;;;;;;7.00;2.60;;;;;;;-1.34;83.03;100497.19;102116;1295;69303;-64
2023/01/06 06:21:59;;;;;;;7.40;2.30;;;;;;;-1.33;84.01;100505.70;102161;1297;74197;-64
2023/01/06 06:24:49;;;;;;;8.40;2.70;;;;;;;-1.35;83.58;100498.96;101637;1299;1003018;-62
2023/01/06 06:27:38;;;;;;;6.80;2.30;;;;;;;-1.35;83.69;100495.31;102392;1295;61364;-64
2023/01/06 06:30:26;;;;;;;8.50;2.60;;;;;;;-1.38;83.82;100498.48;102214;1294;74081;-65
2023/01/06 06:33:15;;;;;;;6.20;2.20;;;;;;;-1.38;84.00;100495.54;102250;1297;67647;-65
2023/01/06 06:36:10;;;;;;;10.70;2.80;;;;;;;-1.41;83.14;100491.25;102405;1299;73320;-64
2023/01/06 06:38:59;;;;;;;8.80;2.80;;;;;;;-1.45;82.85;100482.98;102271;1298;59662;-64
2023/01/06 06:41:48;;;;;;;7.90;2.70;;;;;;;-1.45;83.38;100485.08;102424;1292;60079;-64
2023/01/06 06:44:36;;;;;;;10.30;2.80;;;;;;;-1.44;83.68;100486.96;102237;1298;74048;-63
2023/01/06 06:47:25;;;;;;;11.80;3.00;;;;;;;-1.42;83.53;100483.78;102453;1299;69006;-63
2023/01/06 06:50:13;;;;;;;8.10;2.60;;;;;;;-1.41;83.72;100484.11;102504;1299;72830;-64
2023/01/06 06:53:01;;;;;;;10.50;3.00;;;;;;;-1.42;83.61;100480.46;102339;1299;59718;-61
2023/01/06 06:55:51;;;;;;;9.50;2.90;;;;;;;-1.44;83.56;100484.69;102530;1292;61369;-62
2023/01/06 06:58:40;;;;;;;8.20;2.60;;;;;;;-1.43;84.38;100489.88;102460;1299;73260;-63
2023/01/06 07:01:30;;;;;;;10.10;3.00;;;;;;;-1.42;83.79;100484.13;102221;1301;68357;-63
2023/01/06 07:04:19;;;;;;;11.70;2.90;;;;;;;-1.41;83.77;100483.59;102452;1294;73657;-64
2023/01/06 07:07:10;;;;;;;10.50;3.00;;;;;;;-1.38;83.70;100485.79;102594;1294;59688;-67
2023/01/06 07:09:59;;;;;;;8.60;3.10;;;;;;;-1.36;84.00;100477.57;102494;1299;59652;-66
2023/01/06 07:12:47;;;;;;;7.70;2.70;;;;;;;-1.33;83.97;100482.89;102618;1295;74047;-64
2023/01/06 07:15:36;;;;;;;7.60;2.70;;;;;;;-1.32;83.47;100486.02;102404;1289;67545;-66
2023/01/06 07:18:24;;;;;;;7.00;2.60;;;;;;;-1.32;83.46;100485.83;102391;1299;72434;-65
2023/01/06 07:21:15;;;;;;;9.60;2.80;;;;;;;-1.33;83.39;100486.91;102154;1297;59696;-64
2023/01/06 07:24:04;;;;;;;7.80;2.60;;;;;;;-1.33;83.54;100493.52;102466;1289;61216;-67
2023/01/06 07:26:53;;;;;;;9.10;3.30;;;;;;;-1.31;83.92;100491.02;102173;1298;73052;-62
2023/01/06 07:29:42;;;;;;;8.00;2.80;;;;;;;-1.28;84.40;100495.33;101826;1299;1003682;-64
2023/01/06 07:32:30;;;;;;;8.50;2.80;;;;;;;-1.24;84.24;100501.69;102556;1299;73522;-64
2023/01/06 07:35:19;;;;;;;7.80;2.70;;;;;;;-1.22;84.51;100505.65;102483;1291;59712;-66
2023/01/06 07:38:08;;;;;;;7.70;2.70;;;;;;;-1.24;84.93;100493.65;101777;1299;1003175;-65
2023/01/06 07:41:01;;;;;;;9.10;2.90;;;;;;;-1.21;84.29;100498.64;102401;1299;74068;-66
2023/01/06 07:43:49;;;;;;;8.10;2.90;;;;;;;-1.22;83.38;100494.33;102386;1298;67775;-64
2023/01/06 07:46:38;;;;;;;9.00;3.10;;;;;;;-1.26;82.03;100499.27;102569;1299;71529;-65
2023/01/06 07:49:26;;;;;;;7.80;2.80;;;;;;;-1.29;82.67;100502.65;102407;1299;59632;-64
2023/01/06 07:52:14;;;;;;;10.10;2.60;;;;;;;-1.29;83.36;100505.09;102449;1295;61968;-65
2023/01/06 07:55:06;;;;;;;9.00;2.80;;;;;;;-1.31;81.81;100500.43;102321;1295;73435;-64
2023/01/06 07:57:55;;;;;;;8.20;2.70;;;;;;;-1.32;82.20;100504.31;102587;1299;68623;-64
2023/01/06 08:00:44;;;;;;;9.90;3.20;;;;;;;-1.32;82.53;100504.14;102425;1298;72570;-65
2023/01/06 08:03:33;;;;;;;8.50;3.20;;;;;;;-1.29;83.16;100508.23;102154;1299;59692;-64
2023/01/06 08:06:21;;;;;;;9.60;2.60;;;;;;;-1.26;81.57;100506.59;102481;1299;59647;-65
2023/01/06 08:09:10;;;;;;;8.90;2.90;;;;;;;-1.29;81.19;100504.21;102431;1291;73495;-66
2023/01/06 08:11:58;;;;;;;7.70;2.50;;;;;;;-1.32;80.78;100500.29;102468;1299;68900;-66
2023/01/06 08:14:47;;;;;;;8.90;2.80;;;;;;;-1.35;80.70;100495.48;102229;1297;72733;-64
2023/01/06 08:17:36;;;;;;;7.70;2.50;;;;;;;-1.39;80.78;100481.81;102395;1297;59679;-64
2023/01/06 08:20:26;;;;;;;7.80;2.80;;;;;;;-1.42;81.55;100471.95;102683;1295;60079;-66
2023/01/06 08:23:15;;;;;;;8.70;2.70;;;;;;;-1.42;81.28;100473.70;102242;1298;73297;-63
2023/01/06 08:26:07;;;;;;;9.30;3.00;;;;;;;-1.43;81.25;100464.66;102484;1299;67852;-63
2023/01/06 08:28:56;;;;;;;8.30;2.70;;;;;;;-1.42;81.43;100453.13;102444;1299;73073;-64
2023/01/06 08:31:44;;;;;;;6.90;2.40;;;;;;;-1.38;81.78;100447.66;102503;1289;59910;-65
2023/01/06 08:34:32;;;;;;;9.40;3.00;;;;;;;-1.39;81.45;100444.90;102313;1298;60156;-63
2023/01/06 08:37:21;;;;;;;8.60;3.00;;;;;;;-1.41;81.25;100451.56;102314;1295;73839;-64
2023/01/06 08:40:09;;;;;;;9.10;2.70;;;;;;;-1.36;81.94;100439.95;102157;1294;68555;-65
2023/01/06 08:42:57;;;;;;;11.00;2.90;;;;;;;-1.34;80.79;100428.42;102357;1299;73755;-65
2023/01/06 08:45:46;;;;;;;7.40;2.60;;;;;;;-1.26;82.35;100429.48;102125;1292;59598;-66
2023/01/06 08:48:37;;;;;;;8.20;2.40;;;;;;;-1.20;81.82;100436.46;102342;1299;60317;-64
2023/01/06 08:51:27;;;;;;;8.90;3.10;;;;;;;-1.16;80.83;100434.98;102287;1289;71105;-65
2023/01/06 08:54:15;;;;;;;7.70;2.30;;;;;;;-1.15;80.33;100440.36;102147;1294;67883;-64
2023/01/06 08:57:04;;;;;;;7.20;2.40;;;;;;;-1.17;78.62;100439.71;102407;1291;71916;-65
2023/01/06 08:59:52;;;;;;;8.00;2.50;;;;;;;-1.17;79.89;100442.33;101609;1291;1003452;-66
2023/01/06 09:02:41;;;;;;;7.60;2.60;;;;;;;-1.16;79.20;100432.89;102303;1291;61131;-63
2023/01/06 09:05:30;;;;;;;7.70;2.90;;;;;;;-1.15;79.77;100433.39;102417;1297;74012;-66
2023/01/06 09:08:18;;;;;;;8.30;2.80;;;;;;;-1.13;79.52;100441.70;102448;1291;69028;-67
2023/01/06 09:11:09;;;;;;;7.90;2.90;;;;;;;-1.13;78.60;100445.55;101424;1297;1003108;-64
2023/01/06 09:13:58;;;;;;;7.80;2.80;;;;;;;-1.10;79.89;100448.27;102340;1289;59636;-64
2023/01/06 09:16:47;;;;;;;8.10;2.90;;;;;;;-1.09;79.76;100451.36;102391;1299;61258;-63
2023/01/06 09:19:35;;;;;;;8.60;3.20;;;;;;;-1.09;80.06;100449.25;102212;1298;72063;-64
2023/01/06 09:22:24;;;;;;;9.40;3.30;;;;;;;-1.10;79.74;100442.15;101577;1293;1002891;-66
2023/01/06 09:25:17;;;;;;;6.80;2.80;;;;;;;-1.12;80.22;100439.08;101669;1297;1003148;-67
2023/01/06 09:28:05;;;;;;;7.40;2.90;;;;;;;-1.17;80.77;100440.58;102515;1291;59775;-67
2023/01/06 09:30:54;;;;;;;9.00;3.30;;;;;;;-1.22;81.43;100432.34;102504;1298;60268;-65
2023/01/06 09:33:43;;;;;;;8.80;3.50;;;;;;;-1.18;81.71;100433.98;102504;1292;74059;-66
2023/01/06 09:36:33;;;;;;;12.50;4.70;;;;;;;-1.25;81.88;100425.44;102394;1291;68846;-66
2023/01/06 09:39:21;;;;;;;11.60;4.00;;;;;;;-1.30;82.61;100414.58;102230;1294;71829;-65
2023/01/06 09:42:52;;;;;;;11.20;3.90;;;;;;;-1.38;82.13;100409.55;102406;1298;59763;-66
2023/01/06 09:45:51;;;;;;;8.60;3.70;;;;;;;-1.52;82.88;100396.61;102475;1299;60033;-68
2023/01/06 09:49:10;;;;;;;10.80;4.90;;;;;;;-1.60;83.30;100392.11;102451;1291;73074;-66
2023/01/06 09:52:06;;;;;;;10.80;4.00;;;;;;;-1.66;84.03;100405.65;102521;1289;68112;-66
2023/01/06 09:55:11;;;;;;;12.20;4.30;;;;;;;-1.69;84.48;100404.83;102246;1299;72687;-67
2023/01/06 09:58:11;;;;;;;10.30;4.00;;;;;;;-1.75;84.58;100408.96;102339;1299;59646;-66
2023/01/06 10:01:07;;;;;;;9.20;3.70;;;;;;;-1.76;84.66;100404.98;102121;1297;61135;-66
2023/01/06 10:03:56;;;;;;;10.50;4.10;;;;;;;-1.74;85.28;100403.55;102454;1297;72407;-64
2023/01/06 10:07:06;;;;;;;12.90;3.90;;;;;;;-1.74;84.78;100397.28;102178;1291;69216;-64
2023/01/06 10:11:07;;;;;;;26.60;10.80;;;;;;;-1.75;85.28;100392.61;102397;1299;73468;-68
2023/01/06 10:14:22;;;;;;;12.40;4.20;;;;;;;-1.65;84.61;100398.66;102253;1289;59682;-67
2023/01/06 10:17:52;;;;;;;15.20;5.00;;;;;;;-1.71;84.53;100386.08;101778;1291;1002546;-66
2023/01/06 10:21:08;;;;;;;8.40;3.40;;;;;;;-1.75;84.21;100362.69;102335;1291;73760;-65
2023/01/06 10:24:18;;;;;;;8.90;3.90;;;;;;;-1.76;84.40;100360.09;102341;1299;67892;-66
2023/01/06 10:27:31;;;;;;;12.10;3.90;;;;;;;-1.82;84.20;100357.63;102408;1299;72689;-68
2023/01/06 10:30:44;;;;;;;11.50;3.70;;;;;;;-1.79;84.95;100354.60;102377;1299;59690;-65
2023/01/06 10:33:39;;;;;;;9.00;3.10;;;;;;;-1.83;84.66;100356.94;102387;1291;61385;-66
2023/01/06 10:36:39;;;;;;;10.20;3.50;;;;;;;-1.86;85.08;100358.57;102203;1299;73159;-66
2023/01/06 10:39:29;;;;;;;8.30;3.10;;;;;;;-1.90;85.31;100349.26;102416;1289;67584;-68
2023/01/06 10:43:10;;;;;;;9.00;3.60;;;;;;;-1.89;85.23;100338.81;102437;1292;73721;-67
2023/01/06 10:45:46;;;;;;;9.20;3.60;;;;;;;-1.85;85.76;100342.21;102415;1299;59800;-66
2023/01/06 10:48:35;;;;;;;12.10;4.10;;;;;;;-1.86;85.03;100340.31;102276;1298;59666;-67
2023/01/06 10:51:33;;;;;;;9.50;4.10;;;;;;;-1.87;85.50;100341.90;102474;1291;71528;-66
2023/01/06 10:54:33;;;;;;;9.90;3.50;;;;;;;-1.83;85.29;100339.73;102299;1298;67796;-67
2023/01/06 10:57:31;;;;;;;10.40;4.00;;;;;;;-1.83;85.13;100347.73;102421;1298;73657;-65
2023/01/06 11:00:23;;;;;;;11.50;4.00;;;;;;;-1.85;84.91;100351.43;102385;1299;59750;-67
2023/01/06 11:03:13;;;;;;;9.80;3.80;;;;;;;-1.89;84.39;100353.95;102374;1297;59648;-66
2023/01/06 11:06:30;;;;;;;11.50;4.30;;;;;;;-1.92;84.57;100354.86;102482;1288;73953;-67
2023/01/06 11:09:35;;;;;;;8.70;3.30;;;;;;;-1.92;84.81;100342.02;101732;1299;1003028;-67
2023/01/06 11:12:28;;;;;;;14.20;5.40;;;;;;;-1.94;85.05;100336.66;102376;1299;73704;-66
2023/01/06 11:15:24;;;;;;;12.40;4.70;;;;;;;-1.89;85.39;100332.54;101840;1301;59673;-66
2023/01/06 11:18:27;;;;;;;9.90;4.50;;;;;;;-1.89;85.15;100327.15;102560;1292;60578;-68
2023/01/06 11:21:15;;;;;;;9.70;4.50;;;;;;;-1.87;85.18;100319.63;102314;1298;71849;-67
2023/01/06 11:24:26;;;;;;;12.90;4.10;;;;;;;-1.87;85.24;100317.37;102560;1291;68878;-65
2023/01/06 11:27:16;;;;;;;13.10;5.20;;;;;;;-1.89;85.21;100300.21;102333;1291;73185;-66
2023/01/06 11:30:28;;;;;;;11.10;4.60;;;;;;;-1.90;85.19;100289.27;102413;1291;60058;-66
2023/01/06 11:33:47;;;;;;;10.10;4.40;;;;;;;-1.87;85.74;100277.72;102431;1299;59766;-66
2023/01/06 11:36:45;;;;;;;13.60;4.60;;;;;;;-1.78;84.96;100282.55;102340;1299;72965;-66
2023/01/06 11:39:36;;;;;;;11.10;4.40;;;;;;;-1.76;84.85;100275.23;102329;1283;69224;-67
2023/01/06 11:42:26;;;;;;;11.00;4.30;;;;;;;-1.63;85.99;100267.60;102305;1299;71679;-67
2023/01/06 11:45:35;;;;;;;12.90;5.20;;;;;;;-1.59;84.83;100261.55;102385;1298;59718;-65
2023/01/06 11:48:48;;;;;;;13.50;4.90;;;;;;;-1.54;85.46;100256.06;102390;1299;59779;-67
2023/01/06 11:51:40;;;;;;;10.60;4.80;;;;;;;-1.43;84.79;100252.48;102397;1299;72761;-68
2023/01/06 11:54:38;;;;;;;14.20;4.50;;;;;;;-1.43;84.05;100240.11;102502;1290;67179;-64
2023/01/06 11:57:52;;;;;;;12.50;4.50;;;;;;;-1.45;84.27;100239.64;102453;1299;72440;-66
2023/01/06 12:01:18;;;;;;;15.70;5.30;;;;;;;-1.50;84.06;100235.95;102384;1299;59641;-67
2023/01/06 12:04:49;;;;;;;13.40;5.40;;;;;;;-1.60;83.58;100229.93;102549;1292;60297;-65
2023/01/06 12:07:50;;;;;;;12.80;5.10;;;;;;;-1.76;84.29;100210.13;102322;1292;73452;-66
2023/01/06 12:10:42;;;;;;;13.30;5.10;;;;;;;-1.75;84.58;100214.13;102039;1294;67845;-66
2023/01/06 12:13:32;;;;;;;12.90;5.60;;;;;;;-1.82;84.51;100209.77;102460;1295;71893;-66
2023/01/06 12:16:40;;;;;;;13.70;5.00;;;;;;;-1.93;84.20;100209.34;102526;1299;59638;-67
2023/01/06 12:19:53;;;;;;;15.10;5.60;;;;;;;-2.01;84.73;100207.77;102605;1292;59851;-66
2023/01/06 12:22:53;;;;;;;15.10;5.40;;;;;;;-2.04;85.12;100211.14;102422;1297;73021;-66
2023/01/06 12:25:48;;;;;;;16.30;5.70;;;;;;;-2.09;85.42;100206.58;102161;1299;69030;-65
2023/01/06 12:28:41;;;;;;;12.10;4.90;;;;;;;-2.15;85.24;100196.45;102333;1289;73835;-65
2023/01/06 12:31:46;;;;;;;14.40;5.00;;;;;;;-2.18;86.07;100177.23;102371;1299;59679;-67
2023/01/06 12:34:41;;;;;;;13.80;5.80;;;;;;;-2.22;86.91;100171.42;102356;1288;60837;-64
2023/01/06 12:37:44;;;;;;;15.50;5.70;;;;;;;-2.24;86.79;100170.75;102553;1289;73984;-67
2023/01/06 12:40:38;;;;;;;12.10;4.90;;;;;;;-2.26;87.00;100161.77;102191;1298;68618;-66
2023/01/06 12:43:32;;;;;;;16.30;5.60;;;;;;;-2.26;87.04;100154.81;102399;1291;73079;-68
2023/01/06 12:46:33;;;;;;;12.60;5.30;;;;;;;-2.34;87.53;100153.61;102153;1299;59602;-64
2023/01/06 12:49:21;;;;;;;14.00;4.80;;;;;;;-2.36;87.62;100141.14;102192;1297;60038;-66
2023/01/06 12:52:49;;;;;;;14.70;5.80;;;;;;;-2.35;88.07;100143.56;102369;1286;73351;-65
2023/01/06 12:56:17;;;;;;;14.70;5.80;;;;;;;-2.32;88.10;100130.13;101832;1303;67113;-66
2023/01/06 12:59:39;;;;;;;15.30;5.40;;;;;;;-2.28;88.11;100127.55;101918;1300;73749;-66
2023/01/06 13:02:38;;;;;;;12.80;5.40;;;;;;;-2.23;87.91;100120.32;102047;1302;59695;-66
2023/01/06 13:05:41;;;;;;;13.70;4.90;;;;;;;-2.21;87.50;100113.16;101886;1295;60849;-65
2023/01/06 13:09:18;;;;;;;13.20;5.10;;;;;;;-2.22;87.14;100108.31;101666;1303;74007;-65
2023/01/06 13:12:55;;;;;;;11.70;4.60;;;;;;;-2.22;87.15;100105.35;101679;1302;66875;-66
2023/01/06 13:15:45;;;;;;;10.10;4.10;;;;;;;-2.24;87.14;100098.63;101825;1301;71776;-66
2023/01/06 13:18:57;;;;;;;12.80;5.20;;;;;;;-2.27;87.84;100100.95;101027;1304;1003583;-67
2023/01/06 13:21:50;;;;;;;11.00;4.10;;;;;;;-2.33;87.83;100104.05;101871;1298;61853;-66
2023/01/06 13:25:28;;;;;;;14.20;5.20;;;;;;;-2.36;88.20;100094.73;101912;1302;74429;-68
2023/01/06 13:28:32;;;;;;;14.10;5.10;;;;;;;-2.42;88.94;100086.19;101930;1302;68306;-66